Time;durP1;ratioP1;P1;durP2;ratioP2;P2;SDS_P1;SDS_P2;PMS_P1;PMS_P2;Temp;Humidity;BMP_temperature;BMP_pressure;BME280_temperature;BME280_humidity;BME280_pressure;Samples;Min_cycle;Max_cycle;Signal;HPM_P1;HPM_P2
2022/02/26 00:00:25;;;;;;;5.88;3.03;;;3.50;99.90;;;;;;5074514;28;20032;-76
2022/02/26 00:02:51;;;;;;;8.50;2.78;;;3.50;99.90;;;;;;5071823;28;20028;-76
2022/02/26 00:05:17;;;;;;;4.00;2.42;;;3.50;99.90;;;;;;5055259;28;20418;-76
2022/02/26 00:07:43;;;;;;;6.30;2.25;;;3.50;99.90;;;;;;5075715;28;20515;-77
2022/02/26 00:10:09;;;;;;;7.13;2.83;;;3.50;99.90;;;;;;5057314;28;20021;-75
2022/02/26 00:12:35;;;;;;;6.13;2.60;;;3.50;99.90;;;;;;5056767;28;20033;-76
2022/02/26 00:15:00;;;;;;;9.40;4.25;;;3.50;99.90;;;;;;5074639;28;20481;-75
2022/02/26 00:17:26;;;;;;;6.68;2.70;;;3.60;99.90;;;;;;5047682;28;20051;-78
2022/02/26 00:19:52;;;;;;;6.82;2.50;;;3.60;99.90;;;;;;5056547;28;20465;-76
2022/02/26 00:22:17;;;;;;;10.23;2.90;;;3.60;99.90;;;;;;5055776;28;20162;-76
2022/02/26 00:24:43;;;;;;;7.38;1.88;;;3.60;99.90;;;;;;5069481;28;20059;-77
2022/02/26 00:27:08;;;;;;;8.57;2.33;;;3.70;99.90;;;;;;5055715;28;20040;-77
2022/02/26 00:29:34;;;;;;;8.88;2.53;;;3.70;99.90;;;;;;5044263;28;20020;-77
2022/02/26 00:32:03;;;;;;;6.53;3.33;;;3.70;99.90;;;;;;5059760;28;20092;-75
2022/02/26 00:34:30;;;;;;;5.55;2.22;;;3.70;99.90;;;;;;5072993;28;20024;-75
2022/02/26 00:36:55;;;;;;;7.70;2.60;;;3.70;99.90;;;;;;5070592;28;20028;-76
2022/02/26 00:39:22;;;;;;;5.43;2.67;;;3.70;99.90;;;;;;5050914;28;20033;-76
2022/02/26 00:41:48;;;;;;;5.82;2.03;;;3.80;99.90;;;;;;5074520;28;20029;-75
2022/02/26 00:44:13;;;;;;;7.57;2.55;;;3.80;99.90;;;;;;5071193;28;20039;-76
2022/02/26 00:46:39;;;;;;;4.47;2.55;;;3.80;99.90;;;;;;5052478;28;20041;-76
2022/02/26 00:51:50;;;;;;;4.45;2.08;;;3.80;99.90;;;;;;5074211;28;20043;-76
2022/02/26 00:54:16;;;;;;;7.43;3.58;;;3.80;99.90;;;;;;5072898;28;20036;-77
2022/02/26 00:56:42;;;;;;;7.82;2.60;;;3.90;99.90;;;;;;5052014;28;20035;-78
2022/02/26 00:59:09;;;;;;;5.40;2.85;;;3.80;99.90;;;;;;5058349;28;20024;-81
2022/02/26 01:01:35;;;;;;;3.85;2.45;;;3.80;99.90;;;;;;5061033;28;20040;-81
2022/02/26 01:04:05;;;;;;;3.90;2.60;;;3.80;99.90;;;;;;5052436;28;20012;-80
2022/02/26 01:06:30;;;;;;;7.93;3.10;;;3.80;99.90;;;;;;5066754;28;20509;-80
2022/02/26 01:08:56;;;;;;;6.93;4.00;;;3.80;99.90;;;;;;5054063;28;20036;-79
2022/02/26 01:11:21;;;;;;;6.25;2.65;;;3.80;99.90;;;;;;5073846;28;20094;-80
2022/02/26 01:13:47;;;;;;;5.72;3.17;;;3.80;99.90;;;;;;5055778;28;20055;-79
2022/02/26 01:16:13;;;;;;;5.95;2.83;;;3.80;99.90;;;;;;5060296;28;20437;-79
2022/02/26 01:18:39;;;;;;;7.30;3.60;;;3.80;99.90;;;;;;5061414;28;20024;-78
2022/02/26 01:21:04;;;;;;;5.07;3.00;;;3.80;99.90;;;;;;5056996;28;20158;-78
2022/02/26 01:23:30;;;;;;;6.35;2.50;;;3.80;99.90;;;;;;5071596;28;20052;-78
2022/02/26 01:25:55;;;;;;;6.95;2.97;;;3.80;99.90;;;;;;5073731;28;20060;-80
2022/02/26 01:28:21;;;;;;;9.50;2.70;;;3.90;99.90;;;;;;5065332;28;20110;-77
2022/02/26 01:30:47;;;;;;;7.53;4.78;;;3.80;99.90;;;;;;5073880;28;20024;-77
2022/02/26 01:33:13;;;;;;;4.72;2.50;;;3.90;99.90;;;;;;5071264;28;20043;-77
2022/02/26 01:35:39;;;;;;;5.35;2.60;;;3.80;99.90;;;;;;5053733;28;20407;-75
2022/02/26 01:38:05;;;;;;;9.77;3.03;;;3.80;99.90;;;;;;5054204;28;20600;-75
2022/02/26 01:40:30;;;;;;;12.60;3.53;;;3.80;99.90;;;;;;5054795;28;20021;-76
2022/02/26 01:42:56;;;;;;;6.05;2.58;;;3.80;99.90;;;;;;5058494;28;20389;-78
2022/02/26 01:45:26;;;;;;;6.60;3.38;;;3.80;99.90;;;;;;5061623;28;20051;-77
2022/02/26 01:47:52;;;;;;;7.50;3.25;;;3.80;99.90;;;;;;5053756;28;20055;-78
2022/02/26 01:50:18;;;;;;;8.27;2.67;;;3.80;99.90;;;;;;5067256;28;20073;-78
2022/02/26 01:52:44;;;;;;;7.75;2.30;;;3.80;99.90;;;;;;5061053;28;20025;-75
2022/02/26 01:55:10;;;;;;;5.50;2.83;;;3.80;99.90;;;;;;5056602;28;20030;-76
2022/02/26 01:57:36;;;;;;;11.00;3.92;;;3.80;99.90;;;;;;5071611;28;20057;-77
2022/02/26 02:00:05;;;;;;;8.00;3.03;;;3.80;99.90;;;;;;5068958;28;20496;-76
2022/02/26 02:02:30;;;;;;;8.68;3.10;;;3.80;99.90;;;;;;5059858;28;20052;-77
2022/02/26 02:04:56;;;;;;;5.50;3.28;;;3.70;99.90;;;;;;5069680;28;20396;-77
2022/02/26 02:07:21;;;;;;;9.55;3.83;;;3.70;99.90;;;;;;5064566;28;20083;-78
2022/02/26 02:09:47;;;;;;;4.30;2.60;;;3.70;99.90;;;;;;5072726;28;20028;-77
2022/02/26 02:12:12;;;;;;;8.88;3.33;;;3.60;99.90;;;;;;5073261;28;20032;-76
2022/02/26 02:14:38;;;;;;;11.63;5.50;;;3.50;99.90;;;;;;5060891;28;20020;-77
2022/02/26 02:17:04;;;;;;;7.03;3.33;;;3.50;99.90;;;;;;5068750;28;20034;-77
2022/02/26 02:19:30;;;;;;;5.93;3.00;;;3.50;99.90;;;;;;5070653;28;20024;-77
2022/02/26 02:21:55;;;;;;;7.63;3.20;;;3.60;99.90;;;;;;5067689;28;20078;-77
2022/02/26 02:24:21;;;;;;;6.05;2.58;;;3.50;99.90;;;;;;5072166;28;20454;-77
2022/02/26 02:26:48;;;;;;;11.00;4.28;;;3.60;99.90;;;;;;5082321;28;20017;-76
2022/02/26 02:29:14;;;;;;;5.63;2.72;;;3.50;99.90;;;;;;5091922;28;20033;-77
2022/02/26 02:31:39;;;;;;;8.10;2.83;;;3.60;99.90;;;;;;5092668;28;20028;-76
2022/02/26 02:34:05;;;;;;;9.10;2.90;;;3.50;99.90;;;;;;5095593;28;20012;-76
2022/02/26 02:36:30;;;;;;;9.95;3.40;;;3.50;99.90;;;;;;5095816;28;20028;-76
2022/02/26 02:38:56;;;;;;;13.98;4.18;;;3.50;99.90;;;;;;5087138;28;20029;-76
2022/02/26 02:41:23;;;;;;;7.13;3.22;;;3.50;99.90;;;;;;5082103;28;20096;-77
2022/02/26 02:43:49;;;;;;;9.90;4.30;;;3.50;99.90;;;;;;5071743;28;20021;-76
2022/02/26 02:46:15;;;;;;;5.63;3.75;;;3.50;99.90;;;;;;5088492;28;20040;-76
2022/02/26 02:48:40;;;;;;;10.27;3.83;;;3.40;99.90;;;;;;5087470;28;20021;-76
2022/02/26 02:51:06;;;;;;;7.60;4.13;;;3.40;99.90;;;;;;5059072;28;20104;-77
2022/02/26 02:53:32;;;;;;;8.27;2.90;;;3.40;99.90;;;;;;5065415;28;20056;-77
2022/02/26 02:55:58;;;;;;;8.68;3.92;;;3.30;99.90;;;;;;5073728;28;20040;-77
2022/02/26 02:58:28;;;;;;;5.13;3.17;;;3.20;99.90;;;;;;5069415;28;20089;-77
2022/02/26 03:00:56;;;;;;;14.05;5.22;;;3.20;99.90;;;;;;5067200;28;20020;-77
2022/02/26 03:03:21;;;;;;;8.95;4.13;;;3.30;99.90;;;;;;5065854;28;20501;-77
2022/02/26 03:05:47;;;;;;;6.35;4.07;;;3.20;99.90;;;;;;5065544;28;20024;-76
2022/02/26 03:08:13;;;;;;;9.68;4.20;;;3.20;99.90;;;;;;5084379;28;20037;-77
2022/02/26 03:10:39;;;;;;;6.10;3.70;;;3.20;99.90;;;;;;5063042;28;20055;-76
2022/02/26 03:13:05;;;;;;;6.95;4.45;;;3.20;99.90;;;;;;5054472;28;20050;-77
2022/02/26 03:15:32;;;;;;;6.70;4.60;;;3.30;99.90;;;;;;5056015;28;20731;-76
2022/02/26 03:17:57;;;;;;;11.57;5.07;;;3.30;99.90;;;;;;5072803;28;20024;-76
2022/02/26 03:20:23;;;;;;;12.98;4.38;;;3.30;99.90;;;;;;5053600;28;20454;-76
2022/02/26 03:22:49;;;;;;;8.05;4.63;;;3.30;99.90;;;;;;5053511;28;20029;-76
2022/02/26 03:25:15;;;;;;;8.77;4.70;;;3.30;99.90;;;;;;5056461;28;20404;-76
2022/02/26 03:27:41;;;;;;;9.88;4.70;;;3.30;99.90;;;;;;5071872;28;20024;-77
2022/02/26 03:30:08;;;;;;;8.05;4.68;;;3.30;99.90;;;;;;5047285;28;20441;-77
2022/02/26 03:32:35;;;;;;;7.95;4.80;;;3.20;99.90;;;;;;5055797;28;20036;-76
2022/02/26 03:35:02;;;;;;;10.55;4.68;;;3.20;99.90;;;;;;5064899;28;20032;-76
2022/02/26 03:37:28;;;;;;;10.15;4.70;;;3.20;99.90;;;;;;5067594;28;20035;-76
2022/02/26 03:39:54;;;;;;;7.63;5.10;;;3.10;99.90;;;;;;5062354;28;20539;-77
2022/02/26 03:42:20;;;;;;;6.72;4.03;;;3.10;99.90;;;;;;5052936;28;20028;-76
2022/02/26 03:44:48;;;;;;;12.07;5.00;;;3.10;99.90;;;;;;5072035;28;20027;-76
2022/02/26 03:47:15;;;;;;;7.07;4.15;;;3.10;99.90;;;;;;5065182;28;20049;-76
2022/02/26 03:49:40;;;;;;;8.60;5.43;;;3.10;99.90;;;;;;5070084;28;20435;-76
2022/02/26 03:52:06;;;;;;;7.47;4.93;;;3.10;99.90;;;;;;5060197;28;20066;-75
2022/02/26 03:54:31;;;;;;;6.75;5.18;;;3.10;99.90;;;;;;5065087;28;20100;-76
2022/02/26 03:56:57;;;;;;;13.10;5.68;;;3.10;99.90;;;;;;5052727;28;20020;-77
2022/02/26 03:59:22;;;;;;;12.30;5.88;;;3.10;99.90;;;;;;5071353;28;20036;-77
2022/02/26 04:01:48;;;;;;;17.10;6.72;;;3.10;99.90;;;;;;5063206;28;20017;-77
2022/02/26 04:04:14;;;;;;;13.07;5.40;;;3.10;99.90;;;;;;5063088;28;20025;-77
2022/02/26 04:06:40;;;;;;;11.13;5.45;;;3.00;99.90;;;;;;5063921;28;20564;-76
2022/02/26 04:09:05;;;;;;;10.45;5.30;;;3.00;99.90;;;;;;5064726;28;20048;-76
2022/02/26 04:11:31;;;;;;;10.35;4.93;;;3.00;99.90;;;;;;5068154;28;20047;-77
2022/02/26 04:13:57;;;;;;;11.00;6.03;;;3.10;99.90;;;;;;5075348;28;20396;-76
2022/02/26 04:16:23;;;;;;;10.35;5.65;;;3.00;99.90;;;;;;5071048;28;20032;-76
2022/02/26 04:18:49;;;;;;;14.60;5.38;;;3.00;99.90;;;;;;5065573;28;20149;-77
2022/02/26 04:21:14;;;;;;;13.15;6.22;;;3.00;99.90;;;;;;5070960;28;20112;-76
2022/02/26 04:23:42;;;;;;;14.18;6.45;;;2.90;99.90;;;;;;5050507;28;20044;-77
2022/02/26 04:26:07;;;;;;;10.27;5.43;;;3.00;99.90;;;;;;5064801;28;20512;-76
2022/02/26 04:28:33;;;;;;;10.50;5.53;;;2.90;99.90;;;;;;5072698;28;20109;-76
2022/02/26 04:30:59;;;;;;;11.85;5.72;;;2.90;99.90;;;;;;5063941;28;20381;-77
2022/02/26 04:33:27;;;;;;;17.25;6.28;;;2.90;99.90;;;;;;5064971;28;20479;-76
2022/02/26 04:35:52;;;;;;;13.65;7.55;;;2.90;99.90;;;;;;5062129;28;20039;-77
2022/02/26 04:38:18;;;;;;;14.90;5.93;;;2.90;99.90;;;;;;5073640;28;20037;-76
2022/02/26 04:40:43;;;;;;;14.77;6.03;;;2.90;99.90;;;;;;5065386;28;20029;-76
2022/02/26 04:43:09;;;;;;;15.50;7.13;;;2.90;99.90;;;;;;5069379;28;20414;-76
2022/02/26 04:45:34;;;;;;;11.52;6.57;;;2.90;99.90;;;;;;5074062;28;20032;-77
2022/02/26 04:48:01;;;;;;;11.63;6.32;;;2.80;99.90;;;;;;5062139;28;20060;-76
2022/02/26 04:50:26;;;;;;;11.25;5.70;;;2.90;99.90;;;;;;5064766;28;20066;-75
2022/02/26 04:52:52;;;;;;;15.82;7.25;;;2.90;99.90;;;;;;5070815;28;20072;-76
2022/02/26 04:55:17;;;;;;;9.00;5.60;;;2.90;99.90;;;;;;5063995;28;20085;-77
2022/02/26 04:57:44;;;;;;;13.20;5.50;;;2.90;99.90;;;;;;5062469;28;20039;-76
2022/02/26 05:00:11;;;;;;;10.45;6.30;;;2.90;99.90;;;;;;5048683;28;20029;-77
2022/02/26 05:02:38;;;;;;;13.05;6.80;;;2.90;99.90;;;;;;5064578;28;20507;-76
2022/02/26 05:05:04;;;;;;;9.07;5.38;;;3.00;99.90;;;;;;5057229;28;20068;-78
2022/02/26 05:07:29;;;;;;;11.50;6.00;;;3.00;99.90;;;;;;5069419;28;20074;-77
2022/02/26 05:09:55;;;;;;;14.30;6.13;;;2.90;99.90;;;;;;5068819;28;20083;-77
2022/02/26 05:12:21;;;;;;;20.77;6.55;;;2.90;99.90;;;;;;5063594;28;20496;-76
2022/02/26 05:14:47;;;;;;;13.98;6.10;;;3.00;99.90;;;;;;5060856;28;20102;-76
2022/02/26 05:17:12;;;;;;;17.60;6.80;;;3.00;99.90;;;;;;5073187;28;20032;-77
2022/02/26 05:19:38;;;;;;;12.52;5.68;;;3.00;99.90;;;;;;5064400;28;20140;-77
2022/02/26 05:22:04;;;;;;;15.68;6.97;;;3.00;99.90;;;;;;5070320;28;20024;-77
2022/02/26 05:24:29;;;;;;;11.65;6.40;;;3.00;99.90;;;;;;5067534;28;20036;-77
2022/02/26 05:26:55;;;;;;;15.15;7.90;;;3.00;99.90;;;;;;5064408;28;20017;-77
2022/02/26 05:29:21;;;;;;;13.85;6.50;;;3.00;99.90;;;;;;5074218;28;20025;-77
2022/02/26 05:31:46;;;;;;;11.88;7.32;;;3.00;99.90;;;;;;5064502;28;20024;-76
2022/02/26 05:34:12;;;;;;;9.90;5.93;;;3.00;99.90;;;;;;5071384;28;20035;-76
2022/02/26 05:36:38;;;;;;;22.05;10.38;;;2.90;99.90;;;;;;5067579;28;20392;-76
2022/02/26 05:39:04;;;;;;;15.05;6.90;;;2.90;99.90;;;;;;5074434;28;20348;-77
2022/02/26 05:41:30;;;;;;;12.52;6.80;;;3.00;99.90;;;;;;5059912;28;20036;-76
2022/02/26 05:43:55;;;;;;;14.43;5.95;;;3.00;99.90;;;;;;5074434;28;20029;-76
2022/02/26 05:46:21;;;;;;;17.27;6.82;;;3.00;99.90;;;;;;5052400;28;20032;-77
2022/02/26 05:48:47;;;;;;;14.27;6.68;;;3.00;99.90;;;;;;5073798;28;20481;-76
2022/02/26 05:51:14;;;;;;;13.10;7.45;;;3.00;99.90;;;;;;5053473;28;20116;-77
2022/02/26 05:53:39;;;;;;;17.38;6.95;;;2.90;99.90;;;;;;5071782;28;20029;-76
2022/02/26 05:56:05;;;;;;;13.10;7.10;;;2.90;99.90;;;;;;5063535;28;20500;-77
2022/02/26 05:58:31;;;;;;;12.88;6.95;;;3.00;99.90;;;;;;5055409;28;20096;-77
2022/02/26 06:00:57;;;;;;;13.90;7.85;;;2.90;99.90;;;;;;5064422;28;20048;-77
2022/02/26 06:03:22;;;;;;;17.85;7.93;;;3.00;99.90;;;;;;5073953;28;20028;-76
2022/02/26 06:05:48;;;;;;;15.60;6.88;;;3.00;99.90;;;;;;5071077;28;20029;-76
2022/02/26 06:08:14;;;;;;;22.60;9.15;;;3.00;99.90;;;;;;5046770;28;20131;-77
2022/02/26 06:10:39;;;;;;;13.90;7.38;;;3.00;99.90;;;;;;5071295;28;20486;-77
2022/02/26 06:13:05;;;;;;;17.15;7.82;;;3.00;99.90;;;;;;5073879;28;20039;-77
2022/02/26 06:15:31;;;;;;;18.45;8.27;;;3.00;99.90;;;;;;5074328;28;20066;-76
2022/02/26 06:17:56;;;;;;;16.85;7.80;;;3.10;99.90;;;;;;5059522;28;20032;-76
2022/02/26 06:20:22;;;;;;;14.95;7.93;;;3.10;99.90;;;;;;5073502;28;20040;-76
2022/02/26 06:22:48;;;;;;;14.73;7.85;;;3.00;99.90;;;;;;5073697;28;20023;-75
2022/02/26 06:25:15;;;;;;;20.38;7.90;;;3.10;99.90;;;;;;5072455;28;20024;-75
2022/02/26 06:27:42;;;;;;;17.50;8.20;;;3.00;99.90;;;;;;5064277;28;20017;-77
2022/02/26 06:30:09;;;;;;;12.63;8.30;;;3.00;99.90;;;;;;5051960;28;20021;-76
2022/02/26 06:32:35;;;;;;;14.27;7.97;;;3.00;99.90;;;;;;5073402;28;20399;-77
2022/02/26 06:35:02;;;;;;;14.75;8.45;;;3.00;99.90;;;;;;5071831;28;20103;-76
2022/02/26 06:37:28;;;;;;;11.85;7.03;;;3.00;99.90;;;;;;5066554;28;20020;-77
2022/02/26 06:39:53;;;;;;;12.93;7.07;;;3.10;99.90;;;;;;5065329;28;20020;-76
2022/02/26 06:42:19;;;;;;;17.20;7.50;;;3.10;99.90;;;;;;5067163;28;20099;-77
2022/02/26 06:44:45;;;;;;;8.52;6.47;;;3.10;99.90;;;;;;5062704;28;20025;-77
2022/02/26 06:47:11;;;;;;;13.52;7.22;;;3.10;99.90;;;;;;5072551;28;20013;-78
2022/02/26 06:49:36;;;;;;;14.95;7.80;;;3.10;99.90;;;;;;5072383;28;20115;-77
2022/02/26 06:52:02;;;;;;;15.57;7.45;;;3.20;99.90;;;;;;5069620;28;20032;-78
2022/02/26 06:54:28;;;;;;;12.48;7.53;;;3.30;99.90;;;;;;5071925;28;20032;-76
2022/02/26 06:56:53;;;;;;;15.98;8.20;;;3.50;99.90;;;;;;5072272;28;20045;-77
2022/02/26 06:59:20;;;;;;;13.88;8.50;;;3.50;99.90;;;;;;5060943;28;20027;-77
2022/02/26 07:01:45;;;;;;;14.75;8.48;;;3.40;99.90;;;;;;5071255;28;20464;-77
2022/02/26 07:04:12;;;;;;;12.75;8.13;;;3.50;99.90;;;;;;5058078;28;20028;-76
2022/02/26 07:06:43;;;;;;;16.83;6.95;;;3.50;99.90;;;;;;5072195;28;20020;-77
2022/02/26 07:09:14;;;;;;;14.35;6.43;;;3.50;99.90;;;;;;5072763;28;20048;-77
2022/02/26 07:11:41;;;;;;;15.13;7.05;;;3.40;99.90;;;;;;5071219;28;20100;-77
2022/02/26 07:14:07;;;;;;;18.52;7.75;;;3.60;99.90;;;;;;5072412;28;20033;-78
2022/02/26 07:16:33;;;;;;;11.32;6.82;;;3.70;99.90;;;;;;5067915;28;20463;-77
2022/02/26 07:19:00;;;;;;;13.07;7.00;;;4.00;99.90;;;;;;5054893;28;20048;-76
2022/02/26 07:21:26;;;;;;;13.80;7.63;;;3.80;99.90;;;;;;5062909;28;20036;-77
2022/02/26 07:23:53;;;;;;;15.55;7.32;;;3.60;99.90;;;;;;5065811;28;20028;-77
2022/02/26 07:26:19;;;;;;;17.10;7.88;;;3.50;99.90;;;;;;5062965;28;20096;-76
2022/02/26 07:28:45;;;;;;;15.75;8.25;;;3.60;99.90;;;;;;5055533;28;20464;-77
2022/02/26 07:31:10;;;;;;;22.75;8.88;;;3.60;99.90;;;;;;5053506;28;20420;-76
2022/02/26 07:33:36;;;;;;;17.48;6.88;;;3.60;99.90;;;;;;5048324;28;20018;-78
2022/02/26 07:36:02;;;;;;;16.83;8.25;;;3.60;99.90;;;;;;5062091;28;20024;-77
2022/02/26 07:38:27;;;;;;;19.45;8.80;;;3.60;99.90;;;;;;5071262;28;20579;-77
2022/02/26 07:40:53;;;;;;;17.02;7.55;;;3.60;99.90;;;;;;5071079;28;20063;-77
2022/02/26 07:43:18;;;;;;;14.55;7.68;;;3.60;99.90;;;;;;5067913;28;20108;-78
2022/02/26 07:45:44;;;;;;;18.45;8.25;;;4.00;99.90;;;;;;5046947;28;20074;-77
2022/02/26 07:48:10;;;;;;;12.35;8.52;;;3.90;99.90;;;;;;5069965;28;20028;-77
2022/02/26 07:50:35;;;;;;;17.40;7.13;;;3.90;99.90;;;;;;5049367;28;20021;-77
2022/02/26 07:53:01;;;;;;;15.98;8.35;;;3.90;99.90;;;;;;5054547;28;20029;-77
2022/02/26 07:55:26;;;;;;;20.08;7.55;;;3.90;99.90;;;;;;5055503;28;20282;-78
2022/02/26 07:57:52;;;;;;;12.80;7.38;;;4.00;99.90;;;;;;5056535;28;20101;-78
2022/02/26 08:00:18;;;;;;;12.75;7.68;;;4.00;99.90;;;;;;5074616;28;20154;-77
2022/02/26 08:02:44;;;;;;;12.00;7.85;;;4.00;99.90;;;;;;5061021;28;20029;-76
2022/02/26 08:05:10;;;;;;;13.25;7.30;;;4.10;99.90;;;;;;5060409;28;20013;-77
2022/02/26 08:07:35;;;;;;;16.63;7.43;;;4.30;99.90;;;;;;5072400;28;20047;-77
2022/02/26 08:10:02;;;;;;;13.27;7.50;;;4.20;99.90;;;;;;5068537;28;20066;-77
2022/02/26 08:12:28;;;;;;;13.95;7.88;;;4.30;99.90;;;;;;5074404;28;20361;-77
2022/02/26 08:14:54;;;;;;;11.60;6.60;;;4.40;99.90;;;;;;5058124;28;20074;-76
2022/02/26 08:17:20;;;;;;;11.00;6.78;;;4.30;99.90;;;;;;5075541;28;20084;-76
2022/02/26 08:19:46;;;;;;;15.75;6.90;;;4.40;99.90;;;;;;5068456;28;20104;-75
2022/02/26 08:22:11;;;;;;;10.80;7.28;;;4.50;99.90;;;;;;5065973;28;20637;-76
2022/02/26 08:24:37;;;;;;;13.75;6.82;;;4.50;99.90;;;;;;5068238;28;20017;-80
2022/02/26 08:27:04;;;;;;;12.13;6.70;;;4.90;99.90;;;;;;5074288;28;20077;-76
2022/02/26 08:29:30;;;;;;;14.07;6.50;;;5.20;99.90;;;;;;5062334;28;20047;-77
2022/02/26 08:31:55;;;;;;;11.15;6.68;;;5.40;99.90;;;;;;5076311;28;20472;-77
2022/02/26 08:34:22;;;;;;;13.85;6.40;;;5.20;99.90;;;;;;5063079;28;20067;-77
2022/02/26 08:36:49;;;;;;;11.52;7.20;;;5.00;99.90;;;;;;5055332;28;20027;-76
2022/02/26 08:39:14;;;;;;;14.63;6.90;;;4.90;99.90;;;;;;5066933;28;20082;-77
2022/02/26 08:41:40;;;;;;;16.10;6.65;;;4.70;99.90;;;;;;5075525;28;20071;-77
2022/02/26 08:44:06;;;;;;;12.57;8.02;;;4.70;99.90;;;;;;5075920;28;20025;-76
2022/02/26 08:46:32;;;;;;;9.75;6.03;;;5.20;99.90;;;;;;5065875;28;20468;-77
2022/02/26 08:48:57;;;;;;;9.32;6.53;;;5.60;99.90;;;;;;5062460;28;20050;-78
2022/02/26 08:51:24;;;;;;;13.52;7.18;;;5.80;99.90;;;;;;5075701;28;20036;-78
2022/02/26 08:53:52;;;;;;;14.10;6.80;;;6.00;99.90;;;;;;5069244;28;20024;-77
2022/02/26 08:56:17;;;;;;;14.50;8.18;;;5.90;99.90;;;;;;5071947;28;20024;-77
2022/02/26 08:58:43;;;;;;;13.82;7.07;;;5.70;99.90;;;;;;5057692;28;20058;-77
2022/02/26 09:01:09;;;;;;;11.20;6.55;;;5.80;99.90;;;;;;5064978;28;20508;-77
2022/02/26 09:03:34;;;;;;;13.00;7.28;;;6.20;99.90;;;;;;5066733;28;20383;-77
2022/02/26 09:06:00;;;;;;;16.75;7.68;;;6.50;99.90;;;;;;5071001;28;20024;-77
2022/02/26 09:08:25;;;;;;;17.00;6.97;;;6.60;99.90;;;;;;5067549;28;20032;-78
2022/02/26 09:10:51;;;;;;;10.27;6.32;;;6.50;99.90;;;;;;5064563;28;20488;-77
2022/02/26 09:13:16;;;;;;;15.98;6.25;;;6.20;99.90;;;;;;5075408;28;20105;-78
2022/02/26 09:15:42;;;;;;;12.20;6.55;;;6.40;99.90;;;;;;5070813;28;20027;-77
2022/02/26 09:18:08;;;;;;;12.77;7.57;;;6.30;99.90;;;;;;5046504;28;20028;-78
2022/02/26 09:20:33;;;;;;;13.20;7.80;;;6.30;99.90;;;;;;5075247;28;20048;-77
2022/02/26 09:22:59;;;;;;;9.35;6.97;;;6.50;99.90;;;;;;5065184;28;20020;-76
2022/02/26 09:25:24;;;;;;;10.80;7.07;;;5.90;99.90;;;;;;5073221;28;20070;-77
2022/02/26 09:27:50;;;;;;;10.57;5.63;;;5.80;99.90;;;;;;5064963;28;20021;-77
2022/02/26 09:30:16;;;;;;;16.50;5.72;;;6.10;99.90;;;;;;5060682;28;20028;-76
2022/02/26 09:32:41;;;;;;;15.68;6.35;;;6.30;99.90;;;;;;5069356;28;20385;-76
2022/02/26 09:35:09;;;;;;;17.75;6.78;;;6.40;99.90;;;;;;5070531;28;20041;-77
2022/02/26 09:37:35;;;;;;;12.93;6.47;;;6.30;99.90;;;;;;5069273;28;20055;-77
2022/02/26 09:40:01;;;;;;;11.55;5.72;;;5.80;99.90;;;;;;5069063;28;20048;-77
2022/02/26 09:42:28;;;;;;;13.48;7.50;;;5.70;99.90;;;;;;5064575;28;20016;-77
2022/02/26 09:44:54;;;;;;;11.63;5.00;;;5.90;99.90;;;;;;5072660;28;20029;-77
2022/02/26 09:47:20;;;;;;;7.38;4.47;;;6.10;99.90;;;;;;5067612;28;20100;-78
2022/02/26 09:49:47;;;;;;;9.57;4.72;;;6.30;99.90;;;;;;5067694;28;20020;-77
2022/02/26 09:52:13;;;;;;;9.27;3.65;;;6.50;99.90;;;;;;5072003;28;20069;-79
2022/02/26 09:54:39;;;;;;;6.60;2.13;;;6.70;99.90;;;;;;5062998;28;20024;-77
2022/02/26 09:57:04;;;;;;;7.95;2.55;;;7.10;99.90;;;;;;5070277;28;20021;-77
2022/02/26 09:59:30;;;;;;;4.93;1.50;;;7.50;98.10;;;;;;5055355;28;20039;-78
2022/02/26 10:02:07;;;;;;;5.78;1.15;;;7.70;95.20;;;;;;5059215;28;20396;-77
2022/02/26 10:04:36;;;;;;;4.15;1.40;;;7.50;93.00;;;;;;5060834;28;20023;-76
2022/02/26 10:07:13;;;;;;;6.88;1.25;;;7.30;92.30;;;;;;5070083;28;20017;-77
2022/02/26 10:09:47;;;;;;;9.27;1.38;;;7.40;91.40;;;;;;5071147;28;20028;-77
2022/02/26 10:12:31;;;;;;;4.80;0.80;;;7.30;91.90;;;;;;5071873;28;20024;-78
2022/02/26 10:14:59;;;;;;;6.00;2.10;;;7.60;89.50;;;;;;5069528;28;20143;-77
2022/02/26 10:17:33;;;;;;;4.22;1.75;;;7.50;89.30;;;;;;5072612;28;20480;-78
2022/02/26 10:20:05;;;;;;;4.45;1.50;;;7.50;88.70;;;;;;5061990;28;20028;-78
2022/02/26 10:22:32;;;;;;;5.72;1.73;;;7.60;88.20;;;;;;5062435;28;20099;-77
2022/02/26 10:25:18;;;;;;;6.82;2.70;;;7.50;89.60;;;;;;5048717;28;20469;-77
2022/02/26 10:27:51;;;;;;;6.72;2.72;;;7.40;91.10;;;;;;5060383;28;20051;-77
2022/02/26 10:30:34;;;;;;;5.40;1.90;;;7.30;91.20;;;;;;5063889;28;20025;-77
2022/02/26 10:33:27;;;;;;;6.30;2.60;;;7.40;90.80;;;;;;5066483;28;20029;-77
2022/02/26 10:35:57;;;;;;;6.57;2.17;;;7.20;90.90;;;;;;5069512;28;20034;-77
2022/02/26 10:38:29;;;;;;;7.28;1.73;;;7.10;91.70;;;;;;5062184;28;20485;-78
2022/02/26 10:41:11;;;;;;;10.65;2.67;;;7.70;91.90;;;;;;5073828;28;20032;-78
2022/02/26 10:43:46;;;;;;;12.40;3.40;;;8.00;93.90;;;;;;5047836;28;20095;-77
2022/02/26 10:46:29;;;;;;;8.30;3.38;;;7.80;94.70;;;;;;5048545;28;20044;-78
2022/02/26 10:49:00;;;;;;;11.32;2.70;;;7.70;95.30;;;;;;5074979;28;20121;-76
2022/02/26 10:51:27;;;;;;;13.55;4.13;;;7.80;95.80;;;;;;5072392;28;20054;-77
2022/02/26 10:53:53;;;;;;;6.55;2.03;;;7.70;95.90;;;;;;5061179;28;20031;-78
2022/02/26 10:56:19;;;;;;;7.30;2.55;;;7.50;94.30;;;;;;5073822;28;20483;-77
2022/02/26 10:58:45;;;;;;;7.72;2.45;;;7.40;95.20;;;;;;5079673;28;20029;-77
2022/02/26 11:01:15;;;;;;;6.65;2.50;;;7.40;95.80;;;;;;5073350;28;20048;-77
2022/02/26 11:03:42;;;;;;;5.65;2.55;;;7.40;94.60;;;;;;5063691;28;20047;-78
2022/02/26 11:06:11;;;;;;;10.43;2.85;;;7.40;94.70;;;;;;5071020;28;20111;-78
2022/02/26 11:08:38;;;;;;;12.18;2.70;;;7.10;95.20;;;;;;5058052;28;20517;-77
2022/02/26 11:11:06;;;;;;;6.60;2.53;;;7.20;94.40;;;;;;5061452;28;20032;-77
2022/02/26 11:13:34;;;;;;;8.30;2.05;;;7.10;93.90;;;;;;5044836;28;20024;-79
2022/02/26 11:16:02;;;;;;;12.85;3.55;;;7.10;94.80;;;;;;5073052;28;20496;-77
2022/02/26 11:18:51;;;;;;;6.30;3.15;;;7.30;94.90;;;;;;5062463;28;20031;-78
2022/02/26 11:21:19;;;;;;;9.07;2.78;;;7.50;94.50;;;;;;5072759;28;20404;-77
2022/02/26 11:23:47;;;;;;;7.38;2.70;;;7.60;93.60;;;;;;5069667;28;20020;-77
2022/02/26 11:26:15;;;;;;;6.03;2.13;;;7.60;93.50;;;;;;5072386;28;20036;-77
2022/02/26 11:28:47;;;;;;;5.82;3.20;;;7.50;93.90;;;;;;5056544;28;20388;-78
2022/02/26 11:31:17;;;;;;;8.55;2.33;;;7.60;93.80;;;;;;5072631;28;20423;-77
2022/02/26 11:33:46;;;;;;;7.15;2.40;;;8.10;93.30;;;;;;5068488;28;20021;-77
2022/02/26 11:36:11;;;;;;;5.25;2.15;;;7.90;91.80;;;;;;5049969;28;20032;-77
2022/02/26 11:38:39;;;;;;;10.27;2.85;;;8.10;92.10;;;;;;5073886;28;20023;-77
2022/02/26 11:41:15;;;;;;;6.15;2.10;;;8.50;91.60;;;;;;5075128;28;20123;-78
2022/02/26 11:43:45;;;;;;;5.38;2.08;;;8.50;90.00;;;;;;5053779;28;20063;-77
2022/02/26 11:46:39;;;;;;;7.90;1.80;;;9.00;86.10;;;;;;5067247;28;20515;-77
2022/02/26 11:49:27;;;;;;;7.38;2.45;;;8.60;86.80;;;;;;5081106;28;20050;-77
2022/02/26 11:51:53;;;;;;;5.38;2.25;;;8.90;85.80;;;;;;5066232;28;20067;-78
2022/02/26 11:54:21;;;;;;;6.07;1.60;;;9.20;84.90;;;;;;5058459;28;20055;-76
2022/02/26 11:56:57;;;;;;;7.93;2.33;;;9.60;83.30;;;;;;5070497;28;20021;-77
2022/02/26 11:59:37;;;;;;;4.60;1.80;;;9.50;84.00;;;;;;5074441;28;20021;-77
2022/02/26 12:02:05;;;;;;;9.57;2.00;;;9.50;83.40;;;;;;5066841;28;20056;-78
2022/02/26 12:04:43;;;;;;;9.73;1.95;;;9.30;84.00;;;;;;5065940;28;20070;-77
2022/02/26 12:07:09;;;;;;;9.55;2.25;;;9.30;85.20;;;;;;5076808;28;20016;-76
2022/02/26 12:10:01;;;;;;;5.88;2.17;;;9.10;86.00;;;;;;5070653;28;20031;-78
2022/02/26 12:12:34;;;;;;;6.40;2.00;;;9.40;84.50;;;;;;5064255;28;20048;-78
2022/02/26 12:15:00;;;;;;;8.07;1.85;;;9.40;83.60;;;;;;5071486;28;20028;-78
2022/02/26 12:17:25;;;;;;;7.50;2.42;;;9.00;83.40;;;;;;5051919;28;20028;-78
2022/02/26 12:19:52;;;;;;;7.18;1.88;;;8.60;86.10;;;;;;5074812;28;20052;-77
2022/02/26 12:22:18;;;;;;;8.15;1.67;;;9.10;84.80;;;;;;5075251;28;20067;-76
2022/02/26 12:24:53;;;;;;;4.30;1.75;;;9.40;81.00;;;;;;5070856;28;20436;-78
2022/02/26 12:27:34;;;;;;;8.90;2.00;;;9.40;80.70;;;;;;5054115;28;20505;-79
2022/02/26 12:30:14;;;;;;;6.25;2.13;;;9.10;85.10;;;;;;5076271;28;20025;-78
2022/02/26 12:32:56;;;;;;;3.30;2.10;;;8.00;88.30;;;;;;5073396;28;20048;-77
2022/02/26 12:35:29;;;;;;;5.03;2.17;;;8.00;89.60;;;;;;5076185;28;20040;-77
2022/02/26 12:37:55;;;;;;;11.15;2.20;;;8.20;89.80;;;;;;5081698;28;20024;-77
2022/02/26 12:40:27;;;;;;;5.80;2.08;;;8.10;89.20;;;;;;5074707;28;20032;-78
2022/02/26 12:43:00;;;;;;;11.25;3.50;;;8.20;90.30;;;;;;5055535;28;20032;-76
2022/02/26 12:45:26;;;;;;;7.75;2.53;;;8.10;90.30;;;;;;5074812;28;20033;-77
2022/02/26 12:47:52;;;;;;;7.72;2.42;;;7.50;91.10;;;;;;5070583;28;20043;-78
2022/02/26 12:50:18;;;;;;;9.32;2.50;;;7.50;91.50;;;;;;5073817;28;20020;-77
2022/02/26 12:52:44;;;;;;;5.95;2.90;;;7.20;91.50;;;;;;5057418;28;20181;-77
2022/02/26 12:55:12;;;;;;;7.28;2.00;;;7.30;91.60;;;;;;5061122;28;20025;-79